Rechercher aéroport 
image banner adimage banner ad
image banner ad

VARK - Rajkot

Situé à Rajkot, India

ICAO - VARK, IATA - RAJ

Données fournies par Airmate  

Information générale

Coordonnées: N22°18'34" E70°46'46"
Élévation : 441 feet MSL.
 
Évalué:
Voir évaluations: [VIEW]


Voir autres Aéroports à Gujarat

Données opérationnelles

Accessible au public
Heure actuelle UTC:
Heure actuelle locale:
Météo
TAF: TAF VARK 021700Z 0218/0303 32004KT 6000 FEW020 SCT080 BECMG 0301/0303 32007KT 4000 HZ FEW025 SCT020
Voir NOTAMs / SUP AIP / TFR affectant cet aéroport [VIEW]
Fréquences de communication: [VIEW]

Pistes:

Identifiant RWYQFULongueur (ft)Largeur (ft)SurfaceLDA (ft)
0547°6047148ASP
23227°6047148

Coordonnées de l'aéroport

Adresse: Rajkot India

Vue satellite de VARK